createdAt,value
2023-01-29T00:00:37.964Z,49.78
2023-01-29T00:03:05.810Z,54.50
2023-01-29T00:05:35.179Z,48.08
2023-01-29T00:08:02.365Z,46.80
2023-01-29T00:10:29.558Z,38.28
2023-01-29T00:13:16.942Z,50.38
2023-01-29T00:15:58.992Z,47.42
2023-01-29T00:18:27.437Z,51.45
2023-01-29T00:20:54.683Z,47.13
2023-01-29T00:23:22.322Z,49.72
2023-01-29T00:26:08.971Z,50.17
2023-01-29T00:29:12.892Z,50.72
2023-01-29T00:32:13.999Z,60.03
2023-01-29T00:34:54.535Z,54.30
2023-01-29T00:37:21.677Z,51.72
2023-01-29T00:39:48.683Z,54.00
2023-01-29T00:42:34.229Z,55.90
2023-01-29T00:45:01.228Z,53.85
2023-01-29T00:47:33.326Z,51.95
2023-01-29T00:50:01.913Z,51.25
2023-01-29T00:52:29.612Z,67.10
2023-01-29T00:54:59.008Z,54.92
2023-01-29T00:57:28.472Z,58.78
2023-01-29T00:59:55.926Z,53.03
2023-01-29T01:02:42.295Z,49.53
2023-01-29T01:05:18.304Z,55.30
2023-01-29T01:07:51.293Z,51.70
2023-01-29T01:10:32.129Z,52.95
2023-01-29T01:13:20.931Z,59.63
2023-01-29T01:16:01.917Z,60.22
2023-01-29T01:18:32.080Z,56.10
2023-01-29T01:20:59.745Z,47.63
2023-01-29T01:23:28.034Z,45.38
2023-01-29T01:26:15.003Z,49.35
2023-01-29T01:29:15.918Z,56.53
2023-01-29T01:32:17.085Z,51.20
2023-01-29T01:35:17.910Z,48.50
2023-01-29T01:38:19.026Z,58.63
2023-01-29T01:40:53.882Z,57.65
2023-01-29T01:43:21.015Z,45.33
2023-01-29T01:45:48.659Z,50.22
2023-01-29T01:48:27.182Z,54.80
2023-01-29T01:51:03.555Z,47.90
2023-01-29T01:53:38.597Z,57.88
2023-01-29T01:56:09.514Z,46.88
2023-01-29T01:58:58.879Z,50.60
2023-01-29T02:01:30.031Z,48.60
2023-01-29T02:04:21.754Z,47.97
2023-01-29T02:07:08.552Z,51.00
2023-01-29T02:09:41.497Z,61.30
2023-01-29T02:12:30.134Z,50.95
2023-01-29T02:15:11.772Z,57.78
2023-01-29T02:17:39.899Z,48.22
2023-01-29T02:20:24.919Z,45.60
2023-01-29T02:23:34.216Z,56.95
2023-01-29T02:27:12.928Z,49.65
2023-01-29T02:30:19.977Z,55.65
2023-01-29T02:33:37.271Z,43.30
2023-01-29T02:36:35.167Z,47.35
2023-01-29T02:39:15.680Z,44.55
2023-01-29T02:42:06.308Z,39.85
2023-01-29T02:44:54.395Z,44.63
2023-01-29T02:47:36.657Z,41.40
2023-01-29T02:50:26.602Z,46.90
2023-01-29T02:53:16.175Z,52.65
2023-01-29T02:56:22.452Z,51.15
2023-01-29T02:59:01.031Z,46.42
2023-01-29T03:01:40.791Z,49.33
2023-01-29T03:04:14.548Z,47.78
2023-01-29T03:06:49.669Z,51.10
2023-01-29T03:09:28.995Z,49.88
2023-01-29T03:12:42.978Z,49.45
2023-01-29T03:15:53.999Z,46.05
2023-01-29T03:19:02.111Z,48.08
2023-01-29T03:22:06.055Z,48.05
2023-01-29T03:25:16.051Z,51.10
2023-01-29T03:28:10.867Z,50.42
2023-01-29T03:31:32.124Z,52.60
2023-01-29T03:34:37.063Z,45.05
2023-01-29T03:37:14.175Z,42.90
2023-01-29T03:39:42.397Z,51.63
2023-01-29T03:42:21.338Z,48.97
2023-01-29T03:44:54.427Z,42.13
2023-01-29T03:48:12.622Z,43.47
2023-01-29T03:51:00.906Z,47.58
2023-01-29T03:53:40.048Z,73.20
2023-01-29T03:56:34.842Z,41.38
2023-01-29T03:59:05.747Z,43.78
2023-01-29T04:02:26.090Z,46.60
2023-01-29T04:05:36.065Z,42.45
2023-01-29T04:08:31.116Z,38.47
2023-01-29T04:11:11.517Z,44.83
2023-01-29T04:14:00.135Z,41.22
2023-01-29T04:17:09.054Z,37.80
2023-01-29T04:20:52.027Z,39.17
2023-01-29T04:23:33.194Z,44.33
2023-01-29T04:26:23.795Z,39.67
2023-01-29T04:29:34.039Z,43.30
2023-01-29T04:32:41.796Z,33.47
2023-01-29T04:35:26.582Z,38.08
2023-01-29T04:38:08.267Z,42.85
2023-01-29T04:40:59.569Z,33.63
2023-01-29T04:44:11.673Z,33.47
2023-01-29T04:47:30.220Z,37.42
2023-01-29T04:50:43.405Z,40.53
2023-01-29T04:53:22.942Z,59.15
2023-01-29T04:55:59.868Z,44.22
2023-01-29T04:59:08.131Z,41.83
2023-01-29T05:01:42.690Z,59.03
2023-01-29T05:04:25.181Z,52.90
2023-01-29T05:06:53.544Z,56.92
2023-01-29T05:09:21.772Z,47.78
2023-01-29T05:12:09.045Z,44.42
2023-01-29T05:14:52.451Z,46.38
2023-01-29T05:17:20.749Z,43.95
2023-01-29T05:20:10.283Z,35.22
2023-01-29T05:23:11.024Z,34.53
2023-01-29T05:25:52.934Z,44.42
2023-01-29T05:28:20.350Z,38.42
2023-01-29T05:31:09.263Z,47.03
2023-01-29T05:33:52.774Z,39.30
2023-01-29T05:36:33.994Z,38.00
2023-01-29T05:39:06.822Z,35.88
2023-01-29T05:41:44.525Z,38.85
2023-01-29T05:44:28.405Z,33.67
2023-01-29T05:47:06.843Z,42.58
2023-01-29T05:52:38.563Z,30.80
2023-01-29T05:55:22.947Z,30.73
2023-01-29T05:58:26.251Z,39.55
2023-01-29T06:01:29.265Z,27.70
2023-01-29T06:04:21.058Z,32.45
2023-01-29T06:06:51.162Z,37.40
2023-01-29T06:09:21.616Z,37.30
2023-01-29T06:12:05.012Z,39.10
2023-01-29T06:14:50.591Z,36.45
2023-01-29T06:17:23.449Z,31.65
2023-01-29T06:19:57.584Z,32.03
2023-01-29T06:22:49.708Z,33.80
2023-01-29T06:25:24.307Z,30.88
2023-01-29T06:28:13.240Z,41.83
2023-01-29T06:31:37.407Z,41.53
2023-01-29T06:34:21.731Z,47.17
2023-01-29T06:42:38.870Z,45.40
2023-01-29T06:45:19.871Z,39.55
2023-01-29T06:47:47.032Z,54.30
2023-01-29T06:50:14.088Z,45.88
2023-01-29T06:52:41.318Z,39.05
2023-01-29T06:55:08.857Z,48.75
2023-01-29T06:57:36.318Z,46.47
2023-01-29T07:00:04.614Z,54.88
2023-01-29T07:03:05.989Z,45.63
2023-01-29T07:10:10.287Z,52.73
2023-01-29T07:12:57.169Z,54.42
2023-01-29T07:15:58.249Z,45.13
2023-01-29T07:18:41.315Z,53.80
2023-01-29T07:21:08.657Z,53.78
2023-01-29T07:23:36.140Z,43.78
2023-01-29T07:26:05.088Z,43.88
2023-01-29T07:28:32.417Z,53.50
2023-01-29T07:31:20.256Z,54.63
2023-01-29T07:34:21.127Z,50.97
2023-01-29T07:37:02.255Z,49.72
2023-01-29T07:39:29.496Z,68.28
2023-01-29T07:41:56.445Z,65.07
2023-01-29T07:44:27.218Z,55.42
2023-01-29T07:47:23.096Z,52.22
2023-01-29T07:50:04.841Z,51.67
2023-01-29T07:52:37.418Z,52.25
2023-01-29T07:55:07.035Z,56.22
2023-01-29T07:57:39.826Z,62.60
2023-01-29T08:00:10.440Z,57.30
2023-01-29T08:02:41.833Z,49.92
2023-01-29T08:05:09.623Z,58.97
2023-01-29T08:07:39.939Z,53.70
2023-01-29T08:10:09.587Z,52.40
2023-01-29T08:13:03.257Z,58.75
2023-01-29T08:15:47.795Z,57.30
2023-01-29T08:18:18.554Z,57.55
2023-01-29T08:21:06.530Z,56.45
2023-01-29T08:24:07.206Z,53.13
2023-01-29T08:26:48.750Z,52.63
2023-01-29T08:29:36.499Z,49.13
2023-01-29T08:35:10.037Z,50.72
2023-01-29T08:37:45.232Z,50.05
2023-01-29T08:40:15.981Z,56.35
2023-01-29T08:42:45.345Z,50.80
2023-01-29T08:45:12.571Z,59.38
2023-01-29T08:47:49.153Z,55.80
2023-01-29T08:50:18.277Z,48.13
2023-01-29T08:52:47.417Z,52.17
2023-01-29T08:55:27.221Z,45.00
2023-01-29T08:58:28.159Z,47.70
2023-01-29T09:01:29.260Z,51.08
2023-01-29T09:04:10.435Z,43.28
2023-01-29T09:06:37.633Z,51.90
2023-01-29T09:09:04.881Z,45.65
2023-01-29T09:11:52.192Z,63.20
2023-01-29T09:14:37.582Z,52.85
2023-01-29T09:17:05.160Z,52.58
2023-01-29T09:19:33.632Z,49.00
2023-01-29T09:22:00.643Z,41.28
2023-01-29T09:24:40.129Z,53.33
2023-01-29T09:27:30.147Z,52.38
2023-01-29T09:30:31.340Z,48.28
2023-01-29T09:33:12.535Z,54.72
2023-01-29T09:35:43.657Z,50.85
2023-01-29T09:38:11.329Z,59.28
2023-01-29T09:40:54.209Z,57.80
2023-01-29T09:43:39.777Z,52.88
2023-01-29T09:46:30.855Z,56.78
2023-01-29T09:49:32.243Z,62.03
2023-01-29T09:52:06.192Z,55.45
2023-01-29T09:57:16.349Z,50.97
2023-01-29T10:00:15.013Z,49.60
2023-01-29T10:03:55.469Z,60.33
2023-01-29T10:06:51.369Z,54.42
2023-01-29T10:09:43.416Z,47.58
2023-01-29T10:12:58.249Z,51.38
2023-01-29T10:15:57.637Z,52.92
2023-01-29T10:18:53.186Z,48.67
2023-01-29T10:21:46.255Z,60.22
2023-01-29T10:24:38.945Z,59.38
2023-01-29T10:27:17.796Z,49.15
2023-01-29T10:30:08.218Z,55.83
2023-01-29T10:32:50.423Z,49.35
2023-01-29T10:35:23.770Z,57.05
2023-01-29T10:38:15.216Z,56.47
2023-01-29T10:44:39.664Z,49.60
2023-01-29T10:47:20.297Z,43.55
2023-01-29T10:50:34.473Z,51.35
2023-01-29T10:57:29.748Z,48.70
2023-01-29T11:00:13.424Z,55.13
2023-01-29T11:02:46.989Z,54.35
2023-01-29T11:05:44.238Z,57.40
2023-01-29T11:08:17.023Z,47.83
2023-01-29T11:11:07.539Z,48.47
2023-01-29T11:14:06.227Z,48.92
2023-01-29T11:17:07.278Z,49.53
2023-01-29T11:20:31.325Z,43.03
2023-01-29T11:23:46.355Z,45.40
2023-01-29T11:26:27.121Z,46.17
2023-01-29T11:29:14.423Z,44.90
2023-01-29T11:32:03.657Z,41.03
2023-01-29T11:34:33.656Z,39.03
2023-01-29T11:37:15.735Z,50.90
2023-01-29T11:39:51.639Z,36.42
2023-01-29T11:42:23.337Z,39.60
2023-01-29T11:44:50.482Z,37.42
2023-01-29T11:47:24.492Z,44.17
2023-01-29T11:50:00.545Z,36.45
2023-01-29T11:52:36.807Z,45.30
2023-01-29T11:55:07.446Z,44.88
2023-01-29T11:58:02.416Z,40.45
2023-01-29T12:00:49.464Z,33.95
2023-01-29T12:03:23.885Z,37.92
2023-01-29T12:06:01.435Z,37.90
2023-01-29T12:08:36.949Z,38.13
2023-01-29T12:11:37.267Z,43.85
2023-01-29T12:14:38.802Z,31.88
2023-01-29T12:17:18.612Z,32.72
2023-01-29T12:19:55.619Z,37.35
2023-01-29T12:22:29.966Z,35.33
2023-01-29T12:25:04.344Z,31.23
2023-01-29T12:28:09.584Z,37.28
2023-01-29T12:31:19.367Z,37.50
2023-01-29T12:34:28.199Z,37.05
2023-01-29T12:37:38.363Z,38.50
2023-01-29T12:40:26.869Z,34.60
2023-01-29T12:42:59.854Z,30.58
2023-01-29T12:45:29.537Z,35.05
2023-01-29T12:48:06.235Z,45.60
2023-01-29T12:50:35.482Z,36.15
2023-01-29T12:53:07.925Z,31.13
2023-01-29T12:55:44.106Z,34.33
2023-01-29T12:58:23.484Z,33.13
2023-01-29T13:01:38.495Z,39.13
2023-01-29T13:04:31.280Z,30.90
2023-01-29T13:07:23.820Z,39.80
2023-01-29T13:10:07.037Z,34.55
2023-01-29T13:13:05.398Z,37.00
2023-01-29T13:16:07.457Z,36.58
2023-01-29T13:18:54.160Z,39.28
2023-01-29T13:21:31.660Z,31.17
2023-01-29T13:24:21.083Z,30.88
2023-01-29T13:26:49.705Z,26.42
2023-01-29T13:29:40.713Z,34.63
2023-01-29T13:32:39.921Z,30.58
2023-01-29T13:35:33.663Z,33.13
2023-01-29T13:38:36.314Z,32.83
2023-01-29T13:41:06.907Z,23.85
2023-01-29T13:43:41.874Z,21.80
2023-01-29T13:46:18.264Z,26.30
2023-01-29T13:48:50.313Z,28.70
2023-01-29T13:51:22.378Z,26.88
2023-01-29T13:54:06.668Z,28.92
2023-01-29T13:56:34.281Z,26.05
2023-01-29T13:59:03.777Z,26.35
2023-01-29T14:01:49.585Z,39.58
2023-01-29T14:04:21.901Z,35.25
2023-01-29T14:07:13.403Z,23.58
2023-01-29T14:10:19.089Z,22.23
2023-01-29T14:13:26.517Z,28.10
2023-01-29T14:16:10.696Z,30.00
2023-01-29T14:21:28.662Z,31.48
2023-01-29T14:24:12.756Z,29.92
2023-01-29T14:26:45.720Z,27.73
2023-01-29T14:29:41.498Z,23.57
2023-01-29T14:32:25.324Z,23.98
2023-01-29T14:35:01.548Z,24.13
2023-01-29T14:37:37.920Z,28.30
2023-01-29T14:40:26.489Z,32.25
2023-01-29T14:43:32.404Z,27.63
2023-01-29T14:46:36.554Z,26.98
2023-01-29T14:49:04.242Z,27.95
2023-01-29T14:51:38.627Z,29.05
2023-01-29T14:54:27.186Z,25.20
2023-01-29T14:57:06.063Z,22.35
2023-01-29T14:59:38.360Z,26.20
2023-01-29T15:02:39.958Z,35.53
2023-01-29T15:05:32.316Z,30.08
2023-01-29T15:08:43.745Z,26.42
2023-01-29T15:11:52.606Z,29.65
2023-01-29T15:15:01.929Z,34.42
2023-01-29T15:17:40.336Z,25.13
2023-01-29T15:20:27.524Z,34.00
2023-01-29T15:23:14.415Z,38.28
2023-01-29T15:26:04.244Z,22.40
2023-01-29T15:28:33.828Z,25.35
2023-01-29T15:31:27.450Z,31.33
2023-01-29T15:34:08.274Z,26.77
2023-01-29T15:36:39.921Z,31.63
2023-01-29T15:39:09.988Z,27.63
2023-01-29T15:41:37.609Z,32.88
2023-01-29T15:44:13.716Z,32.10
2023-01-29T15:46:44.078Z,34.08
2023-01-29T15:49:22.835Z,30.60
2023-01-29T15:52:13.552Z,33.13
2023-01-29T15:55:19.755Z,32.57
2023-01-29T15:58:01.786Z,25.98
2023-01-29T16:00:30.408Z,36.30
2023-01-29T16:04:17.675Z,29.10
2023-01-29T16:07:02.194Z,34.10
2023-01-29T16:09:30.081Z,27.63
2023-01-29T16:12:18.419Z,28.23
2023-01-29T16:15:01.260Z,25.10
2023-01-29T16:17:35.556Z,28.70
2023-01-29T16:20:49.001Z,35.28
2023-01-29T16:23:35.388Z,35.28
2023-01-29T16:26:07.603Z,36.90
2023-01-29T16:28:44.964Z,36.42
2023-01-29T16:31:40.578Z,30.98
2023-01-29T16:34:37.369Z,32.85
2023-01-29T16:37:33.661Z,60.60
2023-01-29T16:40:01.029Z,33.03
2023-01-29T16:42:30.756Z,36.50
2023-01-29T16:45:21.086Z,32.72
2023-01-29T16:48:22.263Z,33.10
2023-01-29T16:50:55.579Z,37.40
2023-01-29T16:53:25.350Z,36.63
2023-01-29T16:56:12.498Z,39.72
2023-01-29T16:59:15.389Z,32.45
2023-01-29T17:02:18.476Z,33.60
2023-01-29T17:05:18.446Z,35.88
2023-01-29T17:08:05.482Z,31.67
2023-01-29T17:10:52.397Z,43.65
2023-01-29T17:13:52.523Z,41.30
2023-01-29T17:16:36.343Z,62.15
2023-01-29T17:19:32.522Z,79.85
2023-01-29T17:22:15.197Z,40.08
2023-01-29T17:25:02.462Z,42.30
2023-01-29T17:27:46.063Z,45.13
2023-01-29T17:30:36.504Z,74.88
2023-01-29T17:33:22.854Z,68.20
2023-01-29T17:35:50.664Z,60.63
2023-01-29T17:38:26.071Z,67.30
2023-01-29T17:41:07.357Z,71.25
2023-01-29T17:43:35.135Z,67.40
2023-01-29T17:46:02.565Z,68.75
2023-01-29T17:48:31.081Z,63.83
2023-01-29T17:51:18.449Z,69.95
2023-01-29T17:54:19.600Z,73.38
2023-01-29T17:57:20.947Z,66.85
2023-01-29T18:00:01.699Z,50.40
2023-01-29T18:02:30.061Z,54.58
2023-01-29T18:05:17.785Z,47.03
2023-01-29T18:07:58.271Z,52.42
2023-01-29T18:10:25.479Z,45.85
2023-01-29T18:13:12.579Z,42.95
2023-01-29T18:15:53.333Z,41.38
2023-01-29T18:18:22.387Z,49.35
2023-01-29T18:20:50.621Z,57.72
2023-01-29T18:23:17.903Z,47.38
2023-01-29T18:25:45.363Z,58.70
2023-01-29T18:28:32.539Z,59.00
2023-01-29T18:31:33.473Z,45.15
2023-01-29T18:34:14.212Z,51.03
2023-01-29T18:36:41.387Z,48.03
2023-01-29T18:39:08.647Z,50.78
2023-01-29T18:41:35.886Z,42.95
2023-01-29T18:44:03.028Z,39.80
2023-01-29T18:46:30.197Z,37.72
2023-01-29T18:48:57.360Z,42.50
2023-01-29T18:51:24.400Z,51.17
2023-01-29T18:53:52.473Z,39.97
2023-01-29T18:56:20.016Z,46.67
2023-01-29T18:58:51.899Z,44.20
2023-01-29T19:01:23.708Z,51.13
2023-01-29T19:04:10.545Z,45.53
2023-01-29T19:07:12.527Z,43.50
2023-01-29T19:09:58.776Z,45.03
2023-01-29T19:12:48.502Z,49.10
2023-01-29T19:15:29.749Z,47.25
2023-01-29T19:17:57.568Z,47.03
2023-01-29T19:20:24.891Z,53.63
2023-01-29T19:22:52.091Z,55.20
2023-01-29T19:25:19.938Z,51.38
2023-01-29T19:27:47.723Z,60.17
2023-01-29T19:30:34.699Z,62.55
2023-01-29T19:33:15.838Z,63.92
2023-01-29T19:35:46.560Z,53.33
2023-01-29T19:38:19.003Z,51.72
2023-01-29T19:41:06.486Z,45.78
2023-01-29T19:43:48.400Z,46.33
2023-01-29T19:46:16.004Z,53.35
2023-01-29T19:48:43.429Z,58.30
2023-01-29T19:51:12.382Z,55.10
2023-01-29T19:53:44.308Z,62.53
2023-01-29T19:56:15.213Z,53.83
2023-01-29T19:58:43.296Z,46.65
2023-01-29T20:01:16.784Z,70.13
2023-01-29T20:03:48.580Z,71.00
2023-01-29T20:06:18.965Z,64.78
2023-01-29T20:08:46.926Z,62.05
2023-01-29T20:11:15.568Z,71.15
2023-01-29T20:14:05.576Z,70.00
2023-01-29T20:17:07.847Z,60.85
2023-01-29T20:20:10.572Z,70.63
2023-01-29T20:22:51.727Z,56.17
2023-01-29T20:25:39.547Z,54.80
2023-01-29T20:28:20.757Z,66.30
2023-01-29T20:31:07.739Z,58.45
2023-01-29T20:33:48.733Z,54.80
2023-01-29T20:36:16.584Z,56.88
2023-01-29T20:38:45.171Z,55.92
2023-01-29T20:41:17.938Z,50.35
2023-01-29T20:43:51.066Z,58.15
2023-01-29T20:46:19.833Z,49.53
2023-01-29T20:48:47.377Z,49.83
2023-01-29T20:51:17.833Z,51.80
2023-01-29T20:53:58.714Z,53.95
2023-01-29T20:56:45.795Z,82.03
2023-01-29T20:59:17.708Z,50.08
2023-01-29T21:01:47.290Z,48.63
2023-01-29T21:04:17.579Z,56.67
2023-01-29T21:06:45.835Z,54.50
2023-01-29T21:09:17.032Z,74.60
2023-01-29T21:12:04.703Z,53.80
2023-01-29T21:15:05.649Z,47.55
2023-01-29T21:18:10.556Z,56.20
2023-01-29T21:23:42.253Z,50.53
2023-01-29T21:26:30.659Z,50.97
2023-01-29T21:29:35.252Z,56.33
2023-01-29T21:32:16.619Z,57.38
2023-01-29T21:34:44.864Z,65.40
2023-01-29T21:37:12.096Z,60.28
2023-01-29T21:39:39.547Z,65.97
2023-01-29T21:42:45.596Z,64.13
2023-01-29T21:45:46.629Z,59.92
2023-01-29T21:48:27.509Z,69.05
2023-01-29T21:50:54.744Z,60.90
2023-01-29T21:53:22.838Z,64.55
2023-01-29T21:55:56.812Z,58.42
2023-01-29T21:59:00.760Z,71.88
2023-01-29T22:01:37.867Z,59.90
2023-01-29T22:04:08.836Z,51.22
2023-01-29T22:06:35.964Z,50.85
2023-01-29T22:09:03.091Z,62.47
2023-01-29T22:11:53.135Z,76.82
2023-01-29T22:14:51.638Z,72.32
2023-01-29T22:17:52.555Z,59.55
2023-01-29T22:21:22.259Z,58.35
2023-01-29T22:23:53.394Z,59.90
2023-01-29T22:26:21.836Z,58.90
2023-01-29T22:28:49.256Z,76.88
2023-01-29T22:31:16.728Z,67.03
2023-01-29T22:33:43.787Z,69.13
2023-01-29T22:36:11.279Z,56.42
2023-01-29T22:38:38.503Z,64.32
2023-01-29T22:41:05.675Z,51.17
2023-01-29T22:43:52.658Z,62.22
2023-01-29T22:46:33.321Z,59.42
2023-01-29T22:49:00.415Z,63.58
2023-01-29T22:51:27.838Z,71.32
2023-01-29T22:53:56.697Z,65.28
2023-01-29T22:56:43.562Z,70.57
2023-01-29T22:59:44.554Z,52.55
2023-01-29T23:02:45.594Z,65.57
2023-01-29T23:05:47.654Z,57.45
2023-01-29T23:08:25.637Z,61.65
2023-01-29T23:10:53.067Z,51.08
2023-01-29T23:13:40.631Z,56.10
2023-01-29T23:16:27.658Z,53.38
2023-01-29T23:18:56.990Z,63.43
2023-01-29T23:21:26.431Z,59.05
2023-01-29T23:24:10.210Z,57.38
2023-01-29T23:27:05.341Z,67.65
2023-01-29T23:30:02.732Z,42.72
2023-01-29T23:33:06.515Z,48.40
2023-01-29T23:36:07.638Z,56.35
2023-01-29T23:38:51.304Z,54.53
2023-01-29T23:41:21.479Z,53.28
2023-01-29T23:43:56.465Z,59.95
2023-01-29T23:46:25.305Z,47.92
2023-01-29T23:48:52.769Z,48.47
2023-01-29T23:51:20.065Z,57.55
2023-01-29T23:53:49.807Z,53.47
2023-01-29T23:56:20.354Z,50.08
2023-01-29T23:58:55.474Z,46.25
